createdAt,value
2023-01-28T00:00:00.681Z,39.80
2023-01-28T00:03:03.998Z,41.20
2023-01-28T00:06:13.732Z,36.70
2023-01-28T00:09:17.114Z,38.40
2023-01-28T00:12:20.361Z,38.00
2023-01-28T00:15:25.518Z,38.00
2023-01-28T00:18:29.825Z,37.70
2023-01-28T00:21:33.096Z,39.60
2023-01-28T00:24:36.375Z,40.50
2023-01-28T00:27:39.762Z,36.00
2023-01-28T00:30:43.016Z,41.40
2023-01-28T00:33:47.992Z,39.10
2023-01-28T00:36:57.944Z,39.20
2023-01-28T00:40:01.146Z,37.50
2023-01-28T00:43:05.156Z,43.40
2023-01-28T00:46:10.131Z,39.70
2023-01-28T00:49:13.379Z,38.20
2023-01-28T00:52:17.520Z,40.10
2023-01-28T00:55:21.608Z,38.10
2023-01-28T00:58:24.816Z,40.30
2023-01-28T01:01:28.304Z,39.00
2023-01-28T01:04:35.451Z,39.10
2023-01-28T01:07:42.727Z,41.00
2023-01-28T01:10:45.995Z,39.50
2023-01-28T01:13:56.933Z,40.90
2023-01-28T01:17:00.829Z,41.90
2023-01-28T01:20:06.150Z,43.20
2023-01-28T01:23:10.039Z,42.90
2023-01-28T01:26:13.943Z,34.90
2023-01-28T01:29:17.156Z,40.20
2023-01-28T01:32:20.540Z,41.40
2023-01-28T01:35:23.940Z,40.80
2023-01-28T01:38:28.831Z,36.60
2023-01-28T01:41:33.265Z,40.60
2023-01-28T01:45:03.893Z,34.50
2023-01-28T01:48:16.898Z,35.20
2023-01-28T01:51:25.827Z,36.20
2023-01-28T01:54:32.070Z,32.80
2023-01-28T01:57:37.011Z,33.80
2023-01-28T02:00:42.024Z,35.40
2023-01-28T02:03:57.583Z,27.50
2023-01-28T02:07:02.182Z,28.80
2023-01-28T02:10:07.950Z,29.40
2023-01-28T02:13:11.405Z,30.20
2023-01-28T02:16:15.043Z,31.20
2023-01-28T02:19:20.178Z,27.20
2023-01-28T02:22:44.477Z,28.90
2023-01-28T02:25:53.770Z,26.90
2023-01-28T02:29:25.751Z,27.20
2023-01-28T02:33:00.925Z,25.70
2023-01-28T02:36:37.900Z,27.60
2023-01-28T02:39:48.451Z,27.00
2023-01-28T02:42:51.717Z,25.10
2023-01-28T02:46:13.402Z,29.20
2023-01-28T02:49:30.909Z,24.40
2023-01-28T02:52:58.724Z,24.30
2023-01-28T02:56:14.071Z,25.30
2023-01-28T02:59:32.124Z,21.50
2023-01-28T03:02:54.750Z,19.70
2023-01-28T03:06:05.288Z,17.60
2023-01-28T03:09:25.793Z,17.90
2023-01-28T03:12:50.415Z,16.20
2023-01-28T03:16:12.234Z,16.00
2023-01-28T03:19:36.495Z,16.90
2023-01-28T03:23:02.878Z,18.30
2023-01-28T03:26:27.483Z,18.30
2023-01-28T03:29:50.669Z,16.80
2023-01-28T03:33:14.064Z,15.00
2023-01-28T03:36:35.827Z,16.10
2023-01-28T03:39:39.465Z,16.80
2023-01-28T03:42:44.672Z,17.20
2023-01-28T03:46:08.200Z,16.20
2023-01-28T03:49:11.418Z,14.30
2023-01-28T03:52:15.772Z,13.60
2023-01-28T03:55:19.320Z,16.20
2023-01-28T03:58:27.250Z,18.00
2023-01-28T04:01:30.911Z,14.90
2023-01-28T04:04:34.481Z,16.00
2023-01-28T04:07:38.348Z,16.30
2023-01-28T04:11:15.667Z,14.70
2023-01-28T04:14:21.226Z,13.30
2023-01-28T04:17:28.380Z,19.10
2023-01-28T04:20:33.299Z,16.60
2023-01-28T04:23:37.372Z,14.90
2023-01-28T04:26:40.715Z,15.40
2023-01-28T04:29:44.668Z,15.10
2023-01-28T04:33:14.505Z,16.90
2023-01-28T04:36:25.148Z,18.80
2023-01-28T04:39:58.641Z,21.90
2023-01-28T04:43:18.118Z,20.90
2023-01-28T04:46:25.847Z,21.30
2023-01-28T04:49:38.779Z,23.90
2023-01-28T04:53:14.202Z,20.60
2023-01-28T04:56:29.527Z,21.00
2023-01-28T04:59:32.847Z,20.20
2023-01-28T05:02:36.308Z,22.80
2023-01-28T05:05:39.656Z,20.40
2023-01-28T05:08:55.511Z,20.90
2023-01-28T05:11:58.964Z,22.80
2023-01-28T05:15:02.245Z,19.70
2023-01-28T05:18:05.708Z,23.50
2023-01-28T05:21:15.714Z,19.70
2023-01-28T05:24:21.645Z,21.40
2023-01-28T05:27:25.162Z,22.50
2023-01-28T05:30:30.009Z,21.40
2023-01-28T05:33:33.533Z,18.50
2023-01-28T05:36:37.172Z,20.90
2023-01-28T05:39:52.448Z,17.90
2023-01-28T05:42:55.700Z,19.40
2023-01-28T05:46:06.222Z,20.10
2023-01-28T05:49:32.066Z,17.80
2023-01-28T05:52:48.691Z,21.00
2023-01-28T05:56:02.625Z,25.20
2023-01-28T05:59:07.579Z,22.00
2023-01-28T06:02:10.891Z,26.70
2023-01-28T06:05:14.559Z,23.30
2023-01-28T06:08:17.905Z,22.40
2023-01-28T06:11:21.248Z,25.70
2023-01-28T06:14:26.009Z,23.90
2023-01-28T06:18:04.886Z,18.60
2023-01-28T06:21:11.372Z,19.80
2023-01-28T06:24:14.760Z,18.30
2023-01-28T06:27:18.204Z,24.00
2023-01-28T06:30:21.446Z,22.70
2023-01-28T06:33:24.758Z,23.60
2023-01-28T06:36:27.987Z,20.00
2023-01-28T06:39:34.409Z,21.00
2023-01-28T06:42:37.651Z,17.30
2023-01-28T06:45:40.868Z,22.20
2023-01-28T06:48:44.066Z,21.60
2023-01-28T06:51:47.303Z,22.40
2023-01-28T06:54:50.512Z,21.90
2023-01-28T06:57:53.737Z,19.00
2023-01-28T07:00:56.923Z,21.50
2023-01-28T07:04:00.319Z,20.90
2023-01-28T07:07:04.026Z,18.80
2023-01-28T07:10:07.828Z,16.10
2023-01-28T07:13:11.884Z,17.80
2023-01-28T07:16:15.208Z,18.00
2023-01-28T07:19:18.420Z,16.00
2023-01-28T07:22:21.669Z,14.90
2023-01-28T07:25:24.953Z,13.30
2023-01-28T07:28:28.151Z,15.00
2023-01-28T07:31:31.423Z,12.40
2023-01-28T07:34:37.560Z,14.60
2023-01-28T07:37:40.748Z,17.80
2023-01-28T07:40:45.596Z,13.60
2023-01-28T07:43:48.828Z,13.40
2023-01-28T07:46:52.432Z,13.80
2023-01-28T07:49:55.733Z,13.60
2023-01-28T07:52:59.331Z,13.30
2023-01-28T07:56:03.192Z,17.40
2023-01-28T07:59:06.472Z,15.90
2023-01-28T08:02:12.383Z,13.40
2023-01-28T08:05:19.976Z,13.20
2023-01-28T08:08:25.517Z,18.30
2023-01-28T08:11:28.736Z,18.50
2023-01-28T08:14:31.921Z,13.70
2023-01-28T08:17:35.130Z,14.00
2023-01-28T08:20:38.317Z,13.90
2023-01-28T08:23:41.573Z,18.40
2023-01-28T08:26:46.346Z,12.60
2023-01-28T08:29:49.605Z,15.00
2023-01-28T08:32:57.311Z,17.80
2023-01-28T08:36:04.193Z,16.70
2023-01-28T08:39:07.391Z,14.20
2023-01-28T08:42:10.598Z,13.40
2023-01-28T08:45:14.562Z,14.30
2023-01-28T08:48:19.354Z,13.90
2023-01-28T08:51:22.705Z,12.60
2023-01-28T08:54:25.950Z,12.70
2023-01-28T08:57:29.521Z,11.20
2023-01-28T09:00:34.301Z,15.20
2023-01-28T09:03:37.594Z,12.80
2023-01-28T09:06:40.846Z,14.00
2023-01-28T09:09:44.083Z,12.90
2023-01-28T09:12:47.295Z,11.60
2023-01-28T09:15:51.377Z,14.20
2023-01-28T09:18:54.648Z,14.10
2023-01-28T09:21:57.891Z,14.30
2023-01-28T09:25:01.073Z,13.80
2023-01-28T09:28:05.034Z,14.40
2023-01-28T09:31:11.306Z,13.40
2023-01-28T09:34:14.673Z,12.70
2023-01-28T09:37:18.444Z,14.10
2023-01-28T09:40:36.124Z,15.70
2023-01-28T09:43:51.681Z,12.60
2023-01-28T09:47:02.104Z,13.10
2023-01-28T09:50:11.885Z,13.20
2023-01-28T09:53:42.287Z,13.50
2023-01-28T09:56:50.706Z,14.30
2023-01-28T09:59:54.038Z,19.10
2023-01-28T10:03:18.634Z,15.50
2023-01-28T10:06:30.926Z,13.60
2023-01-28T10:09:56.601Z,15.40
2023-01-28T10:13:39.734Z,14.30
2023-01-28T10:16:53.330Z,14.80
2023-01-28T10:20:11.808Z,18.00
2023-01-28T10:23:32.284Z,17.90
2023-01-28T10:26:40.508Z,16.30
2023-01-28T10:29:46.485Z,20.40
2023-01-28T10:33:04.326Z,17.00
2023-01-28T10:36:09.462Z,24.50
2023-01-28T10:39:18.268Z,21.60
2023-01-28T10:42:33.784Z,32.60
2023-01-28T10:45:44.792Z,22.10
2023-01-28T10:48:47.956Z,20.50
2023-01-28T10:51:51.221Z,21.80
2023-01-28T10:55:05.713Z,18.40
2023-01-28T10:58:20.576Z,21.30
2023-01-28T11:01:24.278Z,20.90
2023-01-28T11:04:30.412Z,19.70
2023-01-28T11:07:33.863Z,18.60
2023-01-28T11:10:38.519Z,21.40
2023-01-28T11:13:52.034Z,20.60
2023-01-28T11:16:58.491Z,18.00
2023-01-28T11:20:11.148Z,24.90
2023-01-28T11:23:28.413Z,22.00
2023-01-28T11:26:36.708Z,20.60
2023-01-28T11:29:42.217Z,21.30
2023-01-28T11:32:46.020Z,19.60
2023-01-28T11:35:55.057Z,20.20
2023-01-28T11:39:05.593Z,20.50
2023-01-28T11:42:17.727Z,19.60
2023-01-28T11:45:48.768Z,20.90
2023-01-28T11:49:05.079Z,16.60
2023-01-28T11:52:55.369Z,20.00
2023-01-28T11:56:19.828Z,18.60
2023-01-28T11:59:38.396Z,18.60
2023-01-28T12:02:51.176Z,20.20
2023-01-28T12:06:13.055Z,18.10
2023-01-28T12:09:30.510Z,21.10
2023-01-28T12:12:51.644Z,24.60
2023-01-28T12:16:26.610Z,28.00
2023-01-28T12:19:30.074Z,26.70
2023-01-28T12:22:45.645Z,28.10
2023-01-28T12:25:56.405Z,26.70
2023-01-28T12:29:20.705Z,27.60
2023-01-28T12:32:49.681Z,27.90
2023-01-28T12:36:07.133Z,25.50
2023-01-28T12:39:34.022Z,31.70
2023-01-28T12:42:47.933Z,29.30
2023-01-28T12:46:16.205Z,25.40
2023-01-28T12:49:52.148Z,24.80
2023-01-28T12:53:05.067Z,29.80
2023-01-28T12:56:11.221Z,40.40
2023-01-28T12:59:21.176Z,49.90
2023-01-28T13:02:33.457Z,36.80
2023-01-28T13:05:44.477Z,40.50
2023-01-28T13:08:49.608Z,47.10
2023-01-28T13:11:57.161Z,49.80
2023-01-28T13:15:01.038Z,50.20
2023-01-28T13:18:06.087Z,46.50
2023-01-28T13:21:24.237Z,49.30
2023-01-28T13:24:32.915Z,46.40
2023-01-28T13:27:36.229Z,38.40
2023-01-28T13:30:53.575Z,34.30
2023-01-28T13:33:56.811Z,45.20
2023-01-28T13:37:05.922Z,51.00
2023-01-28T13:40:15.237Z,57.60
2023-01-28T13:43:48.101Z,47.20
2023-01-28T13:46:53.138Z,48.50
2023-01-28T13:50:03.979Z,46.00
2023-01-28T13:53:35.690Z,51.30
2023-01-28T13:56:52.584Z,49.70
2023-01-28T14:00:07.516Z,44.50
2023-01-28T14:03:24.286Z,42.90
2023-01-28T14:06:30.385Z,41.60
2023-01-28T14:10:16.812Z,39.10
2023-01-28T14:13:26.187Z,39.10
2023-01-28T14:16:38.149Z,42.40
2023-01-28T14:19:44.689Z,32.60
2023-01-28T14:22:48.954Z,42.70
2023-01-28T14:25:55.207Z,44.50
2023-01-28T14:29:10.039Z,40.90
2023-01-28T14:32:17.180Z,38.40
2023-01-28T14:35:29.585Z,44.80
2023-01-28T14:41:44.828Z,41.20
2023-01-28T14:44:55.898Z,41.00
2023-01-28T14:48:25.338Z,40.10
2023-01-28T14:51:54.835Z,40.70
2023-01-28T14:55:23.482Z,47.20
2023-01-28T14:58:52.088Z,53.40
2023-01-28T15:01:58.184Z,50.20
2023-01-28T15:05:10.859Z,46.30
2023-01-28T15:08:24.229Z,71.70
2023-01-28T15:11:27.485Z,66.50
2023-01-28T15:14:32.724Z,74.50
2023-01-28T15:17:36.007Z,51.90
2023-01-28T15:20:39.542Z,52.30
2023-01-28T15:23:43.582Z,69.00
2023-01-28T15:26:47.991Z,70.70
2023-01-28T15:29:54.508Z,67.80
2023-01-28T15:33:06.998Z,66.90
2023-01-28T15:36:10.490Z,77.10
2023-01-28T15:39:21.873Z,75.70
2023-01-28T15:42:29.451Z,73.30
2023-01-28T15:45:32.720Z,73.00
2023-01-28T15:48:36.770Z,62.80
2023-01-28T15:51:40.008Z,54.80
2023-01-28T15:54:49.825Z,57.50
2023-01-28T15:57:55.586Z,48.10
2023-01-28T16:01:15.084Z,54.80
2023-01-28T16:04:26.992Z,52.70
2023-01-28T16:07:34.118Z,53.30
2023-01-28T16:10:38.337Z,39.30
2023-01-28T16:13:44.024Z,50.70
2023-01-28T16:16:48.603Z,60.00
2023-01-28T16:19:58.667Z,54.00
2023-01-28T16:23:04.123Z,75.10
2023-01-28T16:26:24.068Z,86.30
2023-01-28T16:29:30.820Z,95.30
2023-01-28T16:32:39.277Z,88.40
2023-01-28T16:36:03.528Z,73.90
2023-01-28T16:39:05.893Z,76.00
2023-01-28T16:42:09.485Z,72.10
2023-01-28T16:45:21.589Z,67.40
2023-01-28T16:48:25.056Z,57.30
2023-01-28T16:51:28.439Z,56.00
2023-01-28T16:54:33.905Z,61.60
2023-01-28T16:57:37.271Z,89.70
2023-01-28T17:00:40.582Z,70.50
2023-01-28T17:03:44.000Z,70.30
2023-01-28T17:06:47.405Z,74.50
2023-01-28T17:09:50.642Z,71.70
2023-01-28T17:12:54.501Z,60.60
2023-01-28T17:19:19.533Z,51.00
2023-01-28T17:22:22.716Z,45.60
2023-01-28T17:25:25.984Z,43.70
2023-01-28T17:28:29.165Z,40.20
2023-01-28T17:31:32.629Z,43.60
2023-01-28T17:34:35.875Z,55.60
2023-01-28T17:37:39.088Z,58.70
2023-01-28T17:40:42.622Z,80.20
2023-01-28T17:43:53.404Z,75.70
2023-01-28T17:46:56.684Z,62.30
2023-01-28T17:50:00.014Z,54.70
2023-01-28T17:53:03.372Z,38.60
2023-01-28T17:56:06.920Z,36.60
2023-01-28T17:59:10.236Z,37.70
2023-01-28T18:02:14.701Z,33.30
2023-01-28T18:05:18.603Z,30.20
2023-01-28T18:08:21.821Z,33.50
2023-01-28T18:11:25.093Z,33.80
2023-01-28T18:14:28.486Z,30.00
2023-01-28T18:17:31.746Z,47.80
2023-01-28T18:20:35.068Z,39.40
2023-01-28T18:23:38.233Z,40.70
2023-01-28T18:26:41.649Z,41.20
2023-01-28T18:29:44.883Z,38.90
2023-01-28T18:32:48.243Z,30.90
2023-01-28T18:35:51.412Z,30.30
2023-01-28T18:38:54.730Z,33.40
2023-01-28T18:41:58.899Z,31.60
2023-01-28T18:45:02.209Z,34.80
2023-01-28T18:48:05.552Z,37.00
2023-01-28T18:51:27.735Z,32.40
2023-01-28T18:54:32.486Z,39.20
2023-01-28T18:57:35.744Z,40.00
2023-01-28T19:00:39.240Z,36.90
2023-01-28T19:03:42.477Z,31.90
2023-01-28T19:06:46.763Z,43.50
2023-01-28T19:09:50.052Z,42.90
2023-01-28T19:12:53.290Z,40.40
2023-01-28T19:15:56.889Z,35.00
2023-01-28T19:19:01.560Z,43.20
2023-01-28T19:22:04.844Z,39.60
2023-01-28T19:25:08.752Z,31.70
2023-01-28T19:28:11.978Z,35.40
2023-01-28T19:31:15.566Z,39.40
2023-01-28T19:34:18.987Z,35.70
2023-01-28T19:37:22.837Z,38.10
2023-01-28T19:40:26.051Z,41.90
2023-01-28T19:43:29.353Z,35.50
2023-01-28T19:46:33.970Z,39.30
2023-01-28T19:49:37.487Z,39.90
2023-01-28T19:52:40.773Z,38.20
2023-01-28T19:55:44.320Z,38.70
2023-01-28T19:58:47.938Z,32.00
2023-01-28T20:01:51.248Z,35.80
2023-01-28T20:05:00.687Z,39.40
2023-01-28T20:08:05.543Z,43.60
2023-01-28T20:11:12.208Z,38.70
2023-01-28T20:14:16.169Z,34.80
2023-01-28T20:17:20.601Z,35.10
2023-01-28T20:20:23.786Z,36.30
2023-01-28T20:23:27.806Z,46.10
2023-01-28T20:26:33.665Z,45.60
2023-01-28T20:29:36.992Z,42.00
2023-01-28T20:32:40.166Z,39.00
2023-01-28T20:35:44.857Z,42.80
2023-01-28T20:38:48.964Z,40.40
2023-01-28T20:41:52.184Z,30.70
2023-01-28T20:44:55.400Z,27.60
2023-01-28T20:47:58.760Z,32.00
2023-01-28T20:51:16.609Z,34.50
2023-01-28T20:54:21.123Z,26.30
2023-01-28T20:57:24.347Z,25.80
2023-01-28T21:00:27.521Z,27.40
2023-01-28T21:03:30.821Z,27.00
2023-01-28T21:06:36.453Z,27.80
2023-01-28T21:09:40.113Z,24.20
2023-01-28T21:12:43.304Z,22.10
2023-01-28T21:15:54.630Z,21.00
2023-01-28T21:18:57.879Z,22.60
2023-01-28T21:22:01.417Z,25.00
2023-01-28T21:25:05.659Z,23.80
2023-01-28T21:28:12.363Z,22.40
2023-01-28T21:31:18.128Z,22.00
2023-01-28T21:34:21.290Z,24.20
2023-01-28T21:37:26.043Z,20.20
2023-01-28T21:40:29.322Z,24.20
2023-01-28T21:43:33.421Z,21.70
2023-01-28T21:46:36.813Z,23.60
2023-01-28T21:49:40.153Z,20.60
2023-01-28T21:52:43.449Z,24.60
2023-01-28T21:55:49.159Z,23.20
2023-01-28T21:59:11.374Z,23.10
2023-01-28T22:02:15.305Z,22.30
2023-01-28T22:05:18.593Z,24.00
2023-01-28T22:08:22.313Z,19.80
2023-01-28T22:11:25.644Z,21.00
2023-01-28T22:14:29.291Z,21.90
2023-01-28T22:17:32.470Z,26.40
2023-01-28T22:20:35.693Z,19.50
2023-01-28T22:23:39.643Z,19.20
2023-01-28T22:26:44.047Z,17.90
2023-01-28T22:29:47.325Z,20.80
2023-01-28T22:32:50.630Z,19.30
2023-01-28T22:35:53.838Z,19.60
2023-01-28T22:38:57.119Z,19.70
2023-01-28T22:42:00.393Z,19.70
2023-01-28T22:45:04.023Z,21.90
2023-01-28T22:48:07.369Z,25.30
2023-01-28T22:51:19.311Z,22.80
2023-01-28T22:54:22.536Z,20.50
2023-01-28T22:57:25.767Z,21.10
2023-01-28T23:00:29.087Z,19.60
2023-01-28T23:03:33.068Z,19.50
2023-01-28T23:06:37.360Z,23.10
2023-01-28T23:09:40.613Z,22.60
2023-01-28T23:12:45.931Z,24.40
2023-01-28T23:16:09.174Z,19.20
2023-01-28T23:19:30.879Z,20.00
2023-01-28T23:22:53.082Z,19.70
2023-01-28T23:25:56.294Z,16.00
2023-01-28T23:29:00.244Z,17.30
2023-01-28T23:32:07.206Z,14.80
2023-01-28T23:35:12.305Z,13.80
2023-01-28T23:38:15.635Z,12.00
2023-01-28T23:41:18.912Z,13.80
2023-01-28T23:44:26.308Z,12.60
2023-01-28T23:47:29.720Z,14.60
2023-01-28T23:50:33.080Z,15.50
2023-01-28T23:53:36.310Z,15.00
2023-01-28T23:56:39.761Z,14.30
2023-01-28T23:59:43.180Z,11.50
